Time;durP1;ratioP1;P1;durP2;ratioP2;P2;SDS_P1;SDS_P2;PMS_P1;PMS_P2;Temp;Humidity;BMP_temperature;BMP_pressure;BME280_temperature;BME280_humidity;BME280_pressure;Samples;Min_cycle;Max_cycle;Signal;HPM_P1;HPM_P2
2023/11/16 00:00:06;;;;;;;17.48;4.10;;;9.40;57.40;;;;;;5073240;28;20896;-71
2023/11/16 00:02:34;;;;;;;16.70;4.40;;;9.30;57.90;;;;;;5073379;28;20388;-70
2023/11/16 00:05:02;;;;;;;16.13;4.40;;;9.30;58.90;;;;;;5071300;28;20761;-71
2023/11/16 00:07:28;;;;;;;16.30;4.22;;;9.30;57.80;;;;;;5071111;28;20388;-69
2023/11/16 00:09:53;;;;;;;16.10;4.60;;;9.40;56.60;;;;;;5068705;28;20430;-70
2023/11/16 00:12:20;;;;;;;19.27;4.30;;;9.40;57.60;;;;;;5071397;28;20383;-69
2023/11/16 00:14:45;;;;;;;17.05;4.25;;;9.30;57.50;;;;;;5071382;28;20478;-71
2023/11/16 00:17:11;;;;;;;18.38;4.30;;;9.40;56.70;;;;;;5069940;28;20471;-70
2023/11/16 00:19:38;;;;;;;20.27;4.50;;;9.40;57.20;;;;;;5074493;28;20425;-71
2023/11/16 00:22:04;;;;;;;14.02;3.90;;;9.40;57.40;;;;;;5075498;28;20399;-71
2023/11/16 00:24:29;;;;;;;19.67;4.60;;;9.30;58.00;;;;;;5073741;28;20387;-69
2023/11/16 00:26:55;;;;;;;19.63;4.70;;;9.40;57.40;;;;;;5070910;28;20470;-70
2023/11/16 00:29:21;;;;;;;16.33;4.47;;;9.40;56.30;;;;;;5070382;28;20470;-70
2023/11/16 00:31:47;;;;;;;23.88;5.13;;;9.40;55.80;;;;;;5070611;28;20426;-69
2023/11/16 00:34:14;;;;;;;22.52;4.25;;;9.50;55.00;;;;;;5070474;28;20426;-71
2023/11/16 00:36:39;;;;;;;16.90;4.10;;;9.50;55.00;;;;;;5071183;28;20398;-71
2023/11/16 00:39:07;;;;;;;15.17;4.53;;;9.40;55.40;;;;;;5070771;28;20395;-70
2023/11/16 00:41:34;;;;;;;11.77;3.80;;;9.40;56.00;;;;;;5070441;28;20773;-69
2023/11/16 00:44:02;;;;;;;17.23;4.30;;;9.50;54.70;;;;;;5070282;28;20809;-69
2023/11/16 00:46:28;;;;;;;21.20;4.38;;;9.50;53.90;;;;;;5070699;28;20379;-69
2023/11/16 00:48:53;;;;;;;16.73;4.63;;;9.60;53.70;;;;;;5070371;28;20391;-70
2023/11/16 00:51:19;;;;;;;17.17;4.40;;;9.60;54.00;;;;;;5071214;28;20395;-71
2023/11/16 00:53:46;;;;;;;17.00;4.10;;;9.50;53.60;;;;;;5071083;28;20387;-70
2023/11/16 00:56:13;;;;;;;22.73;4.90;;;9.40;53.60;;;;;;5070358;28;20399;-69
2023/11/16 00:58:39;;;;;;;14.95;4.20;;;9.50;54.10;;;;;;5070000;28;20386;-70
2023/11/16 01:01:09;;;;;;;19.25;4.28;;;9.50;54.10;;;;;;5070086;28;20471;-70
2023/11/16 01:03:36;;;;;;;23.60;5.30;;;9.40;53.90;;;;;;5070104;28;20380;-70
2023/11/16 01:06:02;;;;;;;14.65;4.13;;;9.40;55.20;;;;;;5069948;28;20441;-70
2023/11/16 01:08:33;;;;;;;20.57;4.90;;;9.40;55.70;;;;;;5069755;28;20479;-70
2023/11/16 01:11:02;;;;;;;18.67;5.28;;;9.50;54.00;;;;;;5070105;28;20396;-70
2023/11/16 01:13:28;;;;;;;15.43;4.20;;;9.40;54.80;;;;;;5070283;28;20387;-70
2023/11/16 01:15:57;;;;;;;20.33;5.00;;;9.40;55.40;;;;;;5070196;28;20422;-70
2023/11/16 01:18:26;;;;;;;18.95;4.28;;;9.40;55.00;;;;;;5070567;28;20418;-70
2023/11/16 01:20:57;;;;;;;20.27;4.40;;;9.40;54.90;;;;;;5071104;28;20392;-70
2023/11/16 01:23:24;;;;;;;15.75;4.60;;;9.50;54.30;;;;;;5073772;28;20447;-70
2023/11/16 01:25:53;;;;;;;20.08;4.40;;;9.50;54.60;;;;;;5073682;28;20402;-70
2023/11/16 01:28:20;;;;;;;19.55;4.60;;;9.50;54.70;;;;;;5073922;28;20495;-69
2023/11/16 01:30:45;;;;;;;18.60;5.45;;;9.40;55.00;;;;;;5074009;28;20399;-69
2023/11/16 01:33:11;;;;;;;12.13;4.43;;;9.40;55.40;;;;;;5073503;28;20878;-69
2023/11/16 01:35:41;;;;;;;13.00;4.17;;;9.50;54.60;;;;;;5073420;28;20395;-70
2023/11/16 01:38:07;;;;;;;25.20;4.60;;;9.50;54.40;;;;;;5073391;28;20418;-70
2023/11/16 01:40:33;;;;;;;17.03;4.30;;;9.50;54.20;;;;;;5073529;28;20412;-69
2023/11/16 01:42:59;;;;;;;19.77;4.70;;;9.50;54.20;;;;;;5073833;28;20411;-70
2023/11/16 01:45:30;;;;;;;22.43;4.67;;;9.40;54.70;;;;;;5073574;28;20420;-70
2023/11/16 01:48:00;;;;;;;15.63;3.90;;;9.50;54.90;;;;;;5073446;28;20390;-70
2023/11/16 01:50:29;;;;;;;16.30;4.60;;;9.40;54.70;;;;;;5073765;28;20384;-70
2023/11/16 01:53:09;;;;;;;15.20;4.30;;;9.50;54.50;;;;;;5073297;28;20935;-70
2023/11/16 01:55:36;;;;;;;14.93;3.65;;;9.40;54.70;;;;;;5073075;28;20442;-70
2023/11/16 01:58:05;;;;;;;18.13;4.43;;;9.40;55.10;;;;;;5073146;28;20402;-70
2023/11/16 02:00:36;;;;;;;13.27;4.22;;;9.40;55.10;;;;;;5073554;28;20387;-69
2023/11/16 02:03:03;;;;;;;17.83;4.20;;;9.40;55.60;;;;;;5074225;28;20380;-70
2023/11/16 02:05:34;;;;;;;17.60;4.50;;;9.40;54.20;;;;;;5074596;28;20384;-70
2023/11/16 02:08:04;;;;;;;18.27;4.68;;;9.40;54.00;;;;;;5085379;22;20384;-72
2023/11/16 02:10:30;;;;;;;11.73;4.38;;;9.50;53.40;;;;;;5012170;28;20432;-72
2023/11/16 02:12:59;;;;;;;14.88;3.67;;;9.50;54.30;;;;;;5013519;28;20385;-74
2023/11/16 02:15:27;;;;;;;17.58;4.47;;;9.40;54.80;;;;;;5013121;28;20407;-73
2023/11/16 02:17:53;;;;;;;19.35;4.30;;;9.20;55.80;;;;;;5013624;28;20469;-72
2023/11/16 02:20:21;;;;;;;16.95;4.25;;;9.20;56.50;;;;;;5011664;28;20385;-72
2023/11/16 02:22:51;;;;;;;14.23;4.22;;;9.20;56.90;;;;;;5013027;28;20380;-73
2023/11/16 02:25:17;;;;;;;16.02;4.00;;;9.20;56.80;;;;;;5012753;28;20388;-72
2023/11/16 02:27:43;;;;;;;15.23;4.30;;;9.20;56.30;;;;;;5012791;28;20385;-74
2023/11/16 02:30:09;;;;;;;21.13;4.40;;;9.10;56.90;;;;;;5011355;28;20392;-74
2023/11/16 02:32:35;;;;;;;21.17;4.57;;;9.00;57.30;;;;;;5010829;28;20428;-75
2023/11/16 02:35:02;;;;;;;15.57;4.07;;;9.00;56.90;;;;;;5012525;28;20445;-72
2023/11/16 02:37:28;;;;;;;18.05;4.72;;;8.90;57.70;;;;;;5012536;28;20400;-72
2023/11/16 02:39:53;;;;;;;15.60;4.40;;;8.80;59.10;;;;;;5012407;28;20389;-73
2023/11/16 02:42:19;;;;;;;19.13;4.90;;;8.80;59.50;;;;;;5013661;28;20715;-73
2023/11/16 02:44:48;;;;;;;18.23;4.10;;;8.80;60.60;;;;;;5012580;28;20922;-72
2023/11/16 02:47:13;;;;;;;23.15;5.07;;;8.70;60.90;;;;;;5012270;28;20392;-72
2023/11/16 02:49:39;;;;;;;15.87;4.10;;;8.80;61.40;;;;;;5012065;28;20438;-72
2023/11/16 02:52:05;;;;;;;17.90;4.50;;;8.80;62.00;;;;;;5012273;28;20890;-71
2023/11/16 02:54:31;;;;;;;15.43;4.20;;;8.90;60.00;;;;;;5012261;28;20411;-71
2023/11/16 02:56:56;;;;;;;16.35;4.45;;;8.90;60.50;;;;;;5012117;28;20487;-73
2023/11/16 02:59:22;;;;;;;17.63;4.65;;;8.90;60.30;;;;;;5010889;28;20397;-73
2023/11/16 03:01:48;;;;;;;17.52;4.63;;;8.90;60.00;;;;;;5012428;28;20412;-74
2023/11/16 03:04:13;;;;;;;17.63;4.57;;;9.00;58.70;;;;;;5012539;28;20748;-73
2023/11/16 03:06:39;;;;;;;15.30;4.30;;;9.10;58.10;;;;;;5012296;28;20939;-74
2023/11/16 03:09:05;;;;;;;14.60;4.30;;;9.20;58.40;;;;;;5011939;28;20759;-73
2023/11/16 03:11:35;;;;;;;16.15;4.45;;;9.20;57.70;;;;;;5012431;28;20868;-72
2023/11/16 03:14:00;;;;;;;20.88;4.60;;;9.10;59.20;;;;;;5010713;28;20392;-72
2023/11/16 03:16:26;;;;;;;19.20;4.85;;;9.10;58.60;;;;;;5011911;28;20400;-73
2023/11/16 03:18:52;;;;;;;11.95;4.70;;;9.10;57.90;;;;;;5011884;28;20396;-72
2023/11/16 03:21:18;;;;;;;16.02;4.50;;;9.00;59.30;;;;;;5010471;28;20393;-72
2023/11/16 03:23:44;;;;;;;19.30;5.00;;;9.00;59.60;;;;;;5011819;28;20385;-71
2023/11/16 03:26:10;;;;;;;14.57;4.97;;;8.90;61.10;;;;;;5011741;28;20442;-72
2023/11/16 03:28:36;;;;;;;19.87;5.20;;;9.00;60.50;;;;;;5012080;28;20393;-72
2023/11/16 03:31:05;;;;;;;16.10;4.90;;;9.10;59.60;;;;;;5016106;28;20393;-72
2023/11/16 03:33:31;;;;;;;14.77;4.60;;;9.10;59.10;;;;;;5026215;28;20431;-72
2023/11/16 03:35:56;;;;;;;18.60;4.47;;;9.10;59.10;;;;;;5011746;28;20466;-72
2023/11/16 03:38:23;;;;;;;19.10;4.40;;;9.20;57.50;;;;;;5010357;28;20799;-72
2023/11/16 03:40:50;;;;;;;18.33;4.53;;;9.20;57.70;;;;;;5010433;28;20744;-72
2023/11/16 03:43:16;;;;;;;17.48;5.07;;;9.20;57.10;;;;;;5011718;28;20392;-72
2023/11/16 03:45:42;;;;;;;12.80;4.35;;;9.30;56.80;;;;;;5013285;28;20442;-74
2023/11/16 03:48:09;;;;;;;16.90;4.80;;;9.20;57.40;;;;;;5013406;28;20456;-74
2023/11/16 03:50:35;;;;;;;19.25;4.80;;;9.20;58.00;;;;;;5012885;28;20397;-74
2023/11/16 03:53:00;;;;;;;17.60;4.40;;;9.20;57.80;;;;;;5012539;28;20388;-73
2023/11/16 03:55:26;;;;;;;14.52;3.90;;;9.30;57.10;;;;;;5012063;28;20747;-73
2023/11/16 03:57:52;;;;;;;14.90;4.53;;;9.40;55.80;;;;;;5011108;28;20396;-73
2023/11/16 04:00:20;;;;;;;17.80;4.30;;;9.30;56.80;;;;;;5010981;28;20392;-73
2023/11/16 04:02:45;;;;;;;15.65;4.40;;;9.30;56.90;;;;;;5011485;28;20756;-73
2023/11/16 04:05:11;;;;;;;18.33;4.80;;;9.20;57.50;;;;;;5011233;28;20424;-73
2023/11/16 04:07:37;;;;;;;15.70;4.63;;;9.20;58.60;;;;;;5011174;28;20427;-73
2023/11/16 04:10:04;;;;;;;13.50;4.00;;;9.20;58.20;;;;;;5011005;28;20918;-73
2023/11/16 04:12:29;;;;;;;17.52;4.82;;;9.20;58.10;;;;;;5011241;28;20827;-73
2023/11/16 04:14:55;;;;;;;12.52;4.20;;;9.20;58.30;;;;;;5011039;28;20392;-73
2023/11/16 04:17:21;;;;;;;15.77;4.50;;;9.20;57.50;;;;;;5010807;28;20400;-73
2023/11/16 04:19:46;;;;;;;19.02;4.65;;;9.20;57.50;;;;;;5009069;28;20459;-74
2023/11/16 04:22:14;;;;;;;15.70;4.22;;;9.30;57.40;;;;;;5010724;28;20540;-73
2023/11/16 04:24:41;;;;;;;16.67;4.40;;;9.30;56.60;;;;;;5010730;28;20778;-73
2023/11/16 04:27:07;;;;;;;21.80;4.50;;;9.30;56.60;;;;;;5010584;28;20405;-73
2023/11/16 04:29:33;;;;;;;16.83;4.30;;;9.30;56.30;;;;;;5010827;28;20377;-72
2023/11/16 04:31:59;;;;;;;14.90;3.83;;;9.30;56.90;;;;;;5011058;28;20377;-74
2023/11/16 04:34:27;;;;;;;21.77;4.50;;;9.30;56.30;;;;;;5010810;28;20395;-73
2023/11/16 04:36:53;;;;;;;18.48;4.40;;;9.30;56.30;;;;;;5010808;28;20763;-72
2023/11/16 04:39:19;;;;;;;15.07;4.50;;;9.40;56.30;;;;;;5010465;28;20738;-74
2023/11/16 04:41:49;;;;;;;13.23;4.18;;;9.30;56.80;;;;;;5011121;28;20791;-73
2023/11/16 04:44:15;;;;;;;19.73;4.83;;;9.40;56.20;;;;;;5011109;28;20441;-74
2023/11/16 04:46:48;;;;;;;15.18;3.72;;;9.30;56.80;;;;;;5011555;28;20416;-74
2023/11/16 04:49:16;;;;;;;17.05;3.97;;;9.30;57.00;;;;;;5009806;28;20401;-74
2023/11/16 04:51:41;;;;;;;15.88;4.20;;;9.40;56.80;;;;;;5011512;28;20389;-73
2023/11/16 04:54:07;;;;;;;20.15;4.57;;;9.30;57.60;;;;;;5011136;28;20385;-73
2023/11/16 04:56:33;;;;;;;13.68;4.40;;;9.30;57.90;;;;;;5013454;28;20488;-72
2023/11/16 04:58:58;;;;;;;17.42;4.90;;;9.40;57.50;;;;;;5014341;28;20423;-74
2023/11/16 05:01:25;;;;;;;17.20;4.60;;;9.30;57.60;;;;;;5015009;28;20381;-74
2023/11/16 05:03:50;;;;;;;21.00;4.40;;;9.30;57.60;;;;;;5015321;28;20388;-75
2023/11/16 05:06:16;;;;;;;15.27;4.47;;;9.30;58.00;;;;;;5014837;28;20890;-72
2023/11/16 05:08:42;;;;;;;16.20;4.50;;;9.40;57.10;;;;;;5015811;28;20842;-73
2023/11/16 05:11:08;;;;;;;14.65;4.00;;;9.30;56.90;;;;;;5014385;28;20450;-73
2023/11/16 05:13:34;;;;;;;21.50;4.70;;;9.40;56.60;;;;;;5014714;28;20389;-73
2023/11/16 05:16:00;;;;;;;18.63;4.90;;;9.40;56.00;;;;;;5014494;28;20408;-73
2023/11/16 05:18:26;;;;;;;18.27;4.55;;;9.40;55.80;;;;;;5015122;28;20399;-72
2023/11/16 05:20:53;;;;;;;11.95;3.60;;;9.40;55.60;;;;;;5014619;28;20389;-73
2023/11/16 05:23:19;;;;;;;13.52;4.40;;;9.40;56.10;;;;;;5014313;28;20388;-73
2023/11/16 05:25:45;;;;;;;18.73;4.68;;;9.30;56.80;;;;;;5012307;28;20396;-73
2023/11/16 05:28:11;;;;;;;16.40;4.30;;;9.40;56.50;;;;;;5013959;28;20384;-73
2023/11/16 05:30:37;;;;;;;14.48;4.13;;;9.40;56.00;;;;;;5014084;28;20418;-72
2023/11/16 05:33:04;;;;;;;15.05;4.13;;;9.40;56.50;;;;;;5013842;28;20467;-73
2023/11/16 05:35:30;;;;;;;15.65;4.10;;;9.40;56.50;;;;;;5013785;28;20400;-74
2023/11/16 05:37:56;;;;;;;18.88;4.40;;;9.30;57.20;;;;;;5013873;28;20733;-73
2023/11/16 05:40:21;;;;;;;13.30;4.70;;;9.30;57.50;;;;;;5013735;28;20496;-73
2023/11/16 05:42:47;;;;;;;12.00;3.50;;;9.30;57.60;;;;;;5013560;28;20467;-72
2023/11/16 05:45:14;;;;;;;11.97;4.13;;;9.20;58.40;;;;;;5013743;28;20416;-72
2023/11/16 05:47:40;;;;;;;21.63;4.72;;;9.10;59.30;;;;;;5012934;28;20388;-73
2023/11/16 05:50:07;;;;;;;17.83;4.22;;;9.20;58.90;;;;;;5013450;28;20389;-73
2023/11/16 05:52:33;;;;;;;15.10;4.10;;;9.20;58.80;;;;;;5013459;28;20396;-73
2023/11/16 05:54:59;;;;;;;16.63;4.38;;;9.30;57.50;;;;;;5013661;28;20420;-72
2023/11/16 05:57:25;;;;;;;12.73;4.17;;;9.30;56.50;;;;;;5013328;28;20389;-73
2023/11/16 05:59:50;;;;;;;17.77;4.23;;;9.30;56.80;;;;;;5013180;28;20389;-72
2023/11/16 06:02:16;;;;;;;18.47;4.17;;;9.30;57.20;;;;;;5012236;28;20822;-72
2023/11/16 06:04:44;;;;;;;18.50;4.17;;;9.40;56.30;;;;;;5013669;28;20395;-71
2023/11/16 06:07:10;;;;;;;18.27;4.38;;;9.40;56.10;;;;;;5013823;28;20400;-72
2023/11/16 06:09:36;;;;;;;14.10;4.07;;;9.30;55.90;;;;;;5015975;28;20399;-72
2023/11/16 06:12:03;;;;;;;14.80;4.13;;;9.40;54.80;;;;;;5014315;28;20471;-72
2023/11/16 06:14:32;;;;;;;12.80;3.50;;;9.40;55.00;;;;;;5012712;28;20400;-73
2023/11/16 06:16:58;;;;;;;18.33;3.97;;;9.40;54.80;;;;;;5012671;28;20404;-72
2023/11/16 06:19:24;;;;;;;18.38;4.18;;;9.40;55.00;;;;;;5012440;28;20807;-72
2023/11/16 06:21:49;;;;;;;13.93;3.70;;;9.40;55.40;;;;;;5012385;28;20388;-73
2023/11/16 06:24:15;;;;;;;12.40;3.77;;;9.40;55.10;;;;;;5012733;28;20903;-73
2023/11/16 06:26:43;;;;;;;13.03;4.23;;;9.30;56.10;;;;;;5012943;28;20459;-72
2023/11/16 06:29:09;;;;;;;17.80;4.10;;;9.40;55.10;;;;;;5012775;28;20384;-73
2023/11/16 06:31:35;;;;;;;11.13;4.05;;;9.30;55.60;;;;;;5012822;28;20395;-72
2023/11/16 06:34:01;;;;;;;17.90;4.70;;;9.40;55.40;;;;;;5012592;28;20392;-73
2023/11/16 06:36:26;;;;;;;21.05;4.80;;;9.30;55.90;;;;;;5011197;28;20416;-74
2023/11/16 06:38:52;;;;;;;14.35;4.18;;;9.40;54.90;;;;;;5012719;28;20385;-73
2023/11/16 06:41:17;;;;;;;16.77;4.63;;;9.30;56.50;;;;;;5012799;28;20441;-73
2023/11/16 06:43:44;;;;;;;15.93;5.20;;;9.40;56.00;;;;;;5012357;28;20373;-73
2023/11/16 06:46:12;;;;;;;15.73;3.97;;;9.30;56.00;;;;;;5013039;28;20389;-76
2023/11/16 06:48:41;;;;;;;14.88;4.70;;;9.30;56.90;;;;;;5012721;28;20393;-72
2023/11/16 06:51:08;;;;;;;17.67;4.85;;;9.30;57.20;;;;;;5011611;28;20411;-73
2023/11/16 06:53:35;;;;;;;14.90;4.10;;;9.50;54.90;;;;;;5012951;28;20906;-75
2023/11/16 06:56:04;;;;;;;15.90;4.05;;;9.40;55.10;;;;;;5012863;28;20496;-74
2023/11/16 06:58:29;;;;;;;19.65;5.22;;;9.30;56.20;;;;;;5012710;28;20492;-73
2023/11/16 07:00:55;;;;;;;16.60;4.40;;;9.30;57.10;;;;;;5013041;28;20384;-74
2023/11/16 07:03:21;;;;;;;14.90;4.67;;;9.40;56.30;;;;;;5022985;28;20525;-73
2023/11/16 07:05:48;;;;;;;14.40;4.25;;;9.50;55.50;;;;;;5025267;28;20388;-74
2023/11/16 07:08:14;;;;;;;10.35;4.07;;;9.70;53.90;;;;;;5014500;28;20389;-74
2023/11/16 07:10:41;;;;;;;18.75;5.30;;;9.70;54.00;;;;;;5012931;28;20401;-74
2023/11/16 07:13:13;;;;;;;18.98;5.00;;;9.60;53.60;;;;;;5012529;28;20391;-74
2023/11/16 07:15:38;;;;;;;20.35;4.50;;;9.60;53.00;;;;;;5014995;28;20401;-73
2023/11/16 07:18:04;;;;;;;20.92;4.53;;;9.60;54.10;;;;;;5017546;28;20389;-73
2023/11/16 07:20:30;;;;;;;19.17;6.00;;;9.50;54.60;;;;;;5025091;28;20449;-74
2023/11/16 07:22:56;;;;;;;18.15;4.88;;;9.40;56.00;;;;;;5026300;28;20388;-72
2023/11/16 07:25:24;;;;;;;18.88;5.10;;;9.50;55.20;;;;;;5020309;28;20413;-72
2023/11/16 07:27:49;;;;;;;14.30;4.40;;;9.50;54.10;;;;;;5019180;28;20428;-73
2023/11/16 07:30:17;;;;;;;12.53;3.87;;;9.60;52.80;;;;;;5018116;28;20400;-73
2023/11/16 07:32:43;;;;;;;19.08;4.72;;;9.60;52.50;;;;;;5019829;28;20393;-73
2023/11/16 07:35:19;;;;;;;16.10;4.57;;;9.70;52.60;;;;;;5017121;28;20880;-73
2023/11/16 07:37:45;;;;;;;20.38;5.80;;;9.70;51.90;;;;;;5011815;28;20487;-73
2023/11/16 07:40:15;;;;;;;15.48;4.18;;;9.50;53.20;;;;;;5011468;28;20422;-73
2023/11/16 07:42:41;;;;;;;17.40;4.97;;;9.50;53.00;;;;;;5011909;28;20451;-74
2023/11/16 07:45:15;;;;;;;14.48;4.95;;;9.50;53.40;;;;;;5011796;28;20389;-72
2023/11/16 07:47:41;;;;;;;12.32;4.55;;;9.50;53.80;;;;;;5011742;28;20782;-73
2023/11/16 07:50:10;;;;;;;18.80;5.30;;;9.40;54.30;;;;;;5011088;28;20843;-72
2023/11/16 07:52:43;;;;;;;15.70;4.68;;;9.50;55.20;;;;;;5011414;28;20495;-74
2023/11/16 07:55:21;;;;;;;13.87;4.70;;;9.60;55.60;;;;;;5009445;28;20409;-74
2023/11/16 07:57:50;;;;;;;17.35;5.10;;;9.60;56.00;;;;;;4989863;28;20504;-73
2023/11/16 08:00:30;;;;;;;18.42;4.70;;;9.60;56.10;;;;;;5000074;28;20389;-73
2023/11/16 08:03:42;;;;;;;17.70;6.17;;;9.50;56.50;;;;;;5011708;28;20469;-74
2023/11/16 08:05:43;;;;;;;12.95;4.22;;;9.50;56.60;;;;;;4998294;28;20418;-73
2023/11/16 08:10:42;;;;;;;17.00;4.22;;;9.60;54.30;;;;;;5069187;28;20430;-70
2023/11/16 08:13:10;;;;;;;15.98;4.53;;;9.50;54.50;;;;;;5071310;28;20432;-71
2023/11/16 08:15:37;;;;;;;13.07;4.80;;;9.50;55.00;;;;;;5065530;28;20401;-70
2023/11/16 08:18:03;;;;;;;14.48;4.38;;;9.50;55.90;;;;;;5063072;28;20394;-72
2023/11/16 08:20:31;;;;;;;13.65;4.40;;;9.60;56.40;;;;;;5072743;28;20380;-71
2023/11/16 08:22:56;;;;;;;21.73;5.60;;;9.60;56.80;;;;;;5072142;28;20380;-70
2023/11/16 08:25:23;;;;;;;15.55;4.85;;;9.70;56.90;;;;;;5051392;28;20443;-71
2023/11/16 08:27:52;;;;;;;16.60;4.50;;;9.70;56.10;;;;;;5050507;28;20415;-70
2023/11/16 08:30:18;;;;;;;10.83;4.93;;;9.70;55.30;;;;;;5048685;28;20385;-71
2023/11/16 08:32:44;;;;;;;17.08;5.30;;;9.80;54.40;;;;;;5052514;28;20396;-69
2023/11/16 08:35:11;;;;;;;17.77;5.10;;;9.80;55.30;;;;;;5049862;28;20406;-71
2023/11/16 08:37:43;;;;;;;12.55;5.40;;;9.80;55.40;;;;;;5049911;28;20373;-70
2023/11/16 08:40:09;;;;;;;11.70;4.63;;;9.90;54.60;;;;;;5061531;28;20396;-70
2023/11/16 08:42:41;;;;;;;15.63;5.57;;;9.90;54.20;;;;;;5049820;28;20748;-70
2023/11/16 08:45:17;;;;;;;16.33;5.80;;;9.90;53.70;;;;;;5061024;28;20490;-71
2023/11/16 08:47:43;;;;;;;22.10;6.13;;;10.00;53.50;;;;;;5069537;28;20402;-71
2023/11/16 08:50:12;;;;;;;14.77;5.50;;;10.10;53.40;;;;;;5051463;28;20388;-70
2023/11/16 08:52:41;;;;;;;20.88;5.78;;;10.10;54.00;;;;;;5069724;28;20391;-70
2023/11/16 08:55:07;;;;;;;23.37;5.77;;;10.20;53.90;;;;;;5069216;28;20481;-69
2023/11/16 08:57:33;;;;;;;16.60;5.23;;;10.20;54.20;;;;;;5062535;28;20586;-70
2023/11/16 09:00:02;;;;;;;19.13;6.50;;;10.30;54.40;;;;;;5045192;28;20426;-69
2023/11/16 09:02:27;;;;;;;18.45;5.22;;;10.30;53.60;;;;;;5029250;28;20798;-70
2023/11/16 09:04:55;;;;;;;18.90;5.97;;;10.40;52.80;;;;;;5029800;28;20386;-70
2023/11/16 09:07:21;;;;;;;22.58;6.50;;;10.40;52.50;;;;;;5029342;28;20820;-69
2023/11/16 09:09:47;;;;;;;24.27;7.00;;;10.50;53.40;;;;;;5029356;28;20403;-70
2023/11/16 09:12:13;;;;;;;21.58;5.50;;;10.70;51.00;;;;;;5029635;28;20727;-70
2023/11/16 09:14:40;;;;;;;16.10;5.65;;;10.70;51.50;;;;;;5029644;28;20406;-70
2023/11/16 09:17:16;;;;;;;25.38;6.18;;;10.80;50.10;;;;;;5011675;28;20936;-70
2023/11/16 09:19:46;;;;;;;16.48;5.18;;;10.80;49.90;;;;;;5029157;28;20470;-69
2023/11/16 09:22:12;;;;;;;21.85;5.40;;;10.80;50.00;;;;;;5035922;28;20391;-71
2023/11/16 09:24:39;;;;;;;14.90;4.87;;;10.80;50.20;;;;;;5035874;28;20880;-70
2023/11/16 09:27:06;;;;;;;18.90;5.10;;;11.10;49.00;;;;;;5048938;28;20476;-71
2023/11/16 09:29:36;;;;;;;25.42;5.82;;;11.10;48.20;;;;;;5040746;28;20391;-71
2023/11/16 09:32:03;;;;;;;18.63;5.00;;;11.10;47.40;;;;;;5029691;28;20387;-71
2023/11/16 09:34:28;;;;;;;25.35;5.85;;;11.00;46.80;;;;;;5029724;28;20446;-71
2023/11/16 09:36:54;;;;;;;19.50;4.60;;;11.00;47.20;;;;;;5029699;28;20497;-71
2023/11/16 09:39:21;;;;;;;18.02;4.50;;;11.00;47.40;;;;;;5029800;28;20466;-71
2023/11/16 09:41:49;;;;;;;10.45;4.00;;;11.10;47.60;;;;;;5051539;28;20404;-75
2023/11/16 09:44:17;;;;;;;15.00;5.53;;;11.10;46.90;;;;;;5060167;28;20452;-71
2023/11/16 09:46:46;;;;;;;18.88;4.80;;;11.10;47.80;;;;;;5072434;28;20384;-69
2023/11/16 09:49:16;;;;;;;16.27;4.87;;;11.20;46.90;;;;;;5054433;28;20388;-71
2023/11/16 09:51:43;;;;;;;20.00;5.20;;;11.30;45.90;;;;;;5072576;28;20399;-71
2023/11/16 09:54:10;;;;;;;17.60;4.38;;;11.40;45.80;;;;;;5072663;28;20425;-71
2023/11/16 09:56:40;;;;;;;12.43;4.70;;;11.50;45.30;;;;;;5072158;28;20419;-71
2023/11/16 09:59:13;;;;;;;19.00;6.00;;;11.50;44.30;;;;;;5054378;28;20398;-70
2023/11/16 10:01:42;;;;;;;17.90;5.60;;;11.60;44.10;;;;;;5072528;28;20380;-71
2023/11/16 10:04:11;;;;;;;14.98;5.13;;;11.50;44.20;;;;;;5072523;28;20467;-71
2023/11/16 10:06:37;;;;;;;17.58;5.20;;;11.60;44.50;;;;;;5072643;28;20413;-74
2023/11/16 10:09:14;;;;;;;15.48;4.70;;;11.70;44.00;;;;;;5072609;28;20399;-72
2023/11/16 10:11:42;;;;;;;24.92;7.70;;;11.60;42.70;;;;;;5072930;28;20429;-71
2023/11/16 10:14:08;;;;;;;20.15;5.30;;;11.70;42.50;;;;;;5072568;28;20886;-71
2023/11/16 10:16:33;;;;;;;17.63;6.00;;;11.80;41.50;;;;;;5067783;28;20464;-69
2023/11/16 10:19:10;;;;;;;16.43;5.43;;;11.70;41.70;;;;;;5057433;28;20939;-72
2023/11/16 10:21:40;;;;;;;21.70;8.15;;;11.70;42.30;;;;;;5054794;28;20381;-70
2023/11/16 10:24:09;;;;;;;15.70;6.05;;;11.60;43.30;;;;;;5072492;28;20750;-71
2023/11/16 10:26:35;;;;;;;18.85;5.78;;;11.60;42.10;;;;;;5054088;28;20455;-71
2023/11/16 10:29:01;;;;;;;19.83;5.10;;;11.60;41.40;;;;;;5053837;28;20411;-70
2023/11/16 10:31:31;;;;;;;14.85;5.65;;;11.50;41.60;;;;;;5072176;28;20380;-71
2023/11/16 10:33:58;;;;;;;17.00;5.60;;;11.50;42.30;;;;;;5072375;28;20388;-71
2023/11/16 10:36:26;;;;;;;15.82;5.50;;;11.40;42.00;;;;;;5072464;28;20453;-71
2023/11/16 10:38:56;;;;;;;18.55;4.90;;;11.40;42.80;;;;;;5068289;28;20384;-70
2023/11/16 10:41:21;;;;;;;18.80;4.88;;;11.40;43.30;;;;;;5057536;28;20385;-71
2023/11/16 10:43:52;;;;;;;19.35;5.72;;;11.40;42.80;;;;;;5051990;28;20388;-73
2023/11/16 10:46:19;;;;;;;16.50;5.55;;;11.40;42.80;;;;;;5034682;28;20441;-71
2023/11/16 10:48:49;;;;;;;17.10;5.78;;;11.40;42.80;;;;;;5031407;28;20407;-70
2023/11/16 10:51:20;;;;;;;21.17;5.20;;;11.50;42.70;;;;;;5032148;28;20391;-71
2023/11/16 10:53:51;;;;;;;13.70;5.63;;;11.50;41.60;;;;;;5031145;28;20387;-73
2023/11/16 10:56:17;;;;;;;19.67;5.88;;;11.40;41.40;;;;;;5033973;28;20417;-69
2023/11/16 10:58:47;;;;;;;14.87;5.33;;;11.50;42.10;;;;;;5047940;28;20386;-69
2023/11/16 11:01:17;;;;;;;19.08;6.30;;;11.30;41.40;;;;;;5048593;28;20857;-70
2023/11/16 11:03:44;;;;;;;19.70;6.25;;;11.30;41.80;;;;;;5031463;28;20466;-69
2023/11/16 11:06:19;;;;;;;14.13;5.65;;;11.30;42.10;;;;;;5031189;28;20383;-69
2023/11/16 11:08:45;;;;;;;15.77;5.68;;;11.20;42.40;;;;;;5031712;28;20457;-70
2023/11/16 11:11:11;;;;;;;16.10;5.95;;;11.10;42.70;;;;;;5031553;28;20950;-68
2023/11/16 11:13:43;;;;;;;18.27;5.93;;;11.20;42.40;;;;;;5035819;28;20484;-69
2023/11/16 11:16:12;;;;;;;21.23;7.20;;;11.30;42.00;;;;;;5047480;28;20553;-69
2023/11/16 11:18:45;;;;;;;20.50;6.45;;;11.30;42.10;;;;;;5052416;28;20443;-72
2023/11/16 11:21:12;;;;;;;20.65;7.13;;;11.40;41.90;;;;;;5038841;28;20477;-70
2023/11/16 11:23:38;;;;;;;18.17;6.43;;;11.50;42.00;;;;;;5030972;28;20746;-68
2023/11/16 11:26:05;;;;;;;19.65;6.20;;;11.70;40.20;;;;;;5031103;28;20383;-69
2023/11/16 11:28:35;;;;;;;22.77;6.90;;;11.70;40.10;;;;;;5049229;28;20394;-68
2023/11/16 11:31:04;;;;;;;18.20;7.03;;;11.60;40.30;;;;;;5050622;28;20573;-68
2023/11/16 11:33:39;;;;;;;17.52;6.50;;;11.60;40.50;;;;;;5050889;28;20381;-69
2023/11/16 11:36:09;;;;;;;13.80;6.20;;;11.50;40.90;;;;;;5050455;28;20443;-70
2023/11/16 11:38:38;;;;;;;17.27;5.88;;;11.50;41.10;;;;;;5048690;28;20714;-69
2023/11/16 11:41:08;;;;;;;21.42;6.60;;;11.40;41.50;;;;;;5031084;28;20514;-72
2023/11/16 11:43:38;;;;;;;16.35;6.40;;;11.40;41.30;;;;;;5031310;28;20769;-69
2023/11/16 11:46:24;;;;;;;16.70;6.13;;;11.40;41.80;;;;;;5047534;28;20402;-72
2023/11/16 11:48:50;;;;;;;18.83;6.55;;;11.50;41.30;;;;;;5048185;28;20407;-71
2023/11/16 11:51:20;;;;;;;17.10;6.10;;;11.40;41.40;;;;;;5045933;28;20415;-69
2023/11/16 11:53:46;;;;;;;12.95;5.88;;;11.40;41.80;;;;;;5033903;28;20383;-69
2023/11/16 11:56:14;;;;;;;18.90;6.78;;;11.30;42.50;;;;;;5034688;28;20495;-69
2023/11/16 11:58:43;;;;;;;19.90;8.10;;;11.20;42.30;;;;;;5036694;28;20402;-73
2023/11/16 12:01:11;;;;;;;17.10;6.10;;;11.10;43.40;;;;;;5048995;28;20561;-69
2023/11/16 12:03:53;;;;;;;20.50;6.47;;;11.20;43.90;;;;;;5050655;28;20397;-68
2023/11/16 12:06:18;;;;;;;14.73;5.60;;;11.20;43.80;;;;;;5050350;28;20393;-68
2023/11/16 12:08:46;;;;;;;20.03;5.80;;;11.00;43.30;;;;;;5049903;28;20419;-68
2023/11/16 12:11:17;;;;;;;21.77;6.30;;;10.90;44.20;;;;;;5050633;28;20485;-71
2023/11/16 12:13:43;;;;;;;16.20;5.60;;;10.90;43.90;;;;;;5050584;28;20871;-69
2023/11/16 12:16:10;;;;;;;17.45;7.00;;;10.80;44.70;;;;;;5050426;28;20496;-68
2023/11/16 12:18:41;;;;;;;23.65;7.90;;;10.70;45.10;;;;;;5031734;28;20385;-69
2023/11/16 12:21:17;;;;;;;16.52;6.57;;;10.60;45.60;;;;;;5049964;28;20402;-70
2023/11/16 12:23:44;;;;;;;23.85;6.63;;;10.50;46.10;;;;;;5032185;28;20389;-69
2023/11/16 12:26:10;;;;;;;17.98;5.95;;;10.50;46.50;;;;;;5049986;28;20925;-70
2023/11/16 12:28:36;;;;;;;22.20;7.33;;;10.50;46.30;;;;;;5049993;28;20382;-68
2023/11/16 12:31:03;;;;;;;23.80;7.40;;;10.50;47.00;;;;;;5050516;28;20388;-70
2023/11/16 12:33:30;;;;;;;22.08;5.82;;;10.40;47.00;;;;;;5050142;28;20490;-69
2023/11/16 12:35:56;;;;;;;19.08;6.07;;;10.40;46.60;;;;;;5049990;28;20894;-68
2023/11/16 12:38:21;;;;;;;19.25;5.00;;;10.40;46.50;;;;;;5049698;28;20475;-70
2023/11/16 12:40:48;;;;;;;18.67;6.78;;;10.30;46.60;;;;;;5050002;28;20896;-70
2023/11/16 12:43:13;;;;;;;21.63;6.53;;;10.50;46.80;;;;;;5032191;28;20393;-70
2023/11/16 12:45:40;;;;;;;18.75;6.20;;;10.40;46.90;;;;;;5050206;28;20749;-69